Time;durP1;ratioP1;P1;durP2;ratioP2;P2;SDS_P1;SDS_P2;PMS_P1;PMS_P2;Temp;Humidity;BMP_temperature;BMP_pressure;BME280_temperature;BME280_humidity;BME280_pressure;Samples;Min_cycle;Max_cycle;Signal;HPM_P1;HPM_P2
2023/04/26 00:01:30;;;;;;;16.92;7.68;;;;;;;4.43;100.00;101837.81;5103926;27;20094;-71
2023/04/26 00:03:56;;;;;;;18.00;7.65;;;;;;;4.36;100.00;101826.50;5084835;28;20401;-71
2023/04/26 00:06:22;;;;;;;25.55;8.27;;;;;;;4.38;100.00;101831.78;5102578;27;20027;-71
2023/04/26 00:08:47;;;;;;;17.00;7.60;;;;;;;4.41;100.00;101837.84;5102801;27;20522;-71
2023/04/26 00:11:13;;;;;;;23.63;8.43;;;;;;;4.40;100.00;101832.59;5104875;27;20473;-71
2023/04/26 00:13:38;;;;;;;13.27;7.28;;;;;;;4.39;100.00;101829.09;5111082;27;20472;-71
2023/04/26 00:16:04;;;;;;;16.90;8.15;;;;;;;4.39;100.00;101830.88;5103412;27;20028;-72
2023/04/26 00:18:30;;;;;;;22.20;7.72;;;;;;;4.37;100.00;101832.69;5100899;27;20069;-70
2023/04/26 00:20:56;;;;;;;19.20;8.30;;;;;;;4.32;100.00;101827.50;5098871;27;20047;-71
2023/04/26 00:23:21;;;;;;;13.35;8.00;;;;;;;4.32;100.00;101829.28;5103195;27;20138;-72
2023/04/26 00:25:47;;;;;;;21.77;9.13;;;;;;;4.30;100.00;101833.69;5106409;27;20028;-71
2023/04/26 00:28:13;;;;;;;19.73;8.75;;;;;;;4.26;100.00;101835.53;5103749;27;20058;-71
2023/04/26 00:30:41;;;;;;;20.50;8.77;;;;;;;4.17;100.00;101827.84;5099196;27;20059;-71
2023/04/26 00:33:07;;;;;;;17.40;7.88;;;;;;;4.17;100.00;101819.91;5099318;27;20123;-71
2023/04/26 00:35:33;;;;;;;20.08;8.38;;;;;;;4.15;100.00;101824.34;5080669;27;20077;-71
2023/04/26 00:37:58;;;;;;;20.65;8.93;;;;;;;4.09;100.00;101821.84;5084593;27;20128;-71
2023/04/26 00:40:24;;;;;;;18.50;7.80;;;;;;;4.10;100.00;101820.91;5102221;27;20047;-72
2023/04/26 00:42:56;;;;;;;16.90;7.95;;;;;;;4.05;100.00;101822.78;5109535;27;20389;-71
2023/04/26 00:45:22;;;;;;;15.77;8.45;;;;;;;4.05;100.00;101821.00;5093779;27;20184;-71
2023/04/26 00:47:48;;;;;;;18.27;8.75;;;;;;;3.98;100.00;101822.06;5098958;27;20116;-71
2023/04/26 00:50:15;;;;;;;17.15;8.02;;;;;;;3.57;100.00;101822.88;5098786;27;20056;-71
2023/04/26 00:52:40;;;;;;;11.98;6.63;;;;;;;3.69;100.00;101817.34;5099092;27;20552;-71
2023/04/26 00:55:07;;;;;;;26.23;8.80;;;;;;;3.74;100.00;101823.41;5091304;27;20051;-71
2023/04/26 00:57:32;;;;;;;19.98;8.05;;;;;;;3.84;100.00;101819.69;5104024;27;20044;-71
2023/04/26 00:59:57;;;;;;;17.80;9.15;;;;;;;3.83;100.00;101820.59;5091127;27;20320;-71
2023/04/26 01:02:24;;;;;;;18.55;8.93;;;;;;;3.84;100.00;101824.97;5085796;28;20228;-71
2023/04/26 01:04:50;;;;;;;23.00;8.65;;;;;;;3.76;100.00;101826.00;5072284;28;20119;-72
2023/04/26 01:07:16;;;;;;;20.98;9.93;;;;;;;3.65;100.00;101823.56;5083890;27;20546;-71
2023/04/26 01:09:43;;;;;;;29.17;9.57;;;;;;;3.81;100.00;101822.38;5098149;27;20059;-71
2023/04/26 01:12:10;;;;;;;21.02;9.80;;;;;;;3.87;100.00;101824.03;5104202;27;20043;-70
2023/04/26 01:14:38;;;;;;;19.95;9.70;;;;;;;3.87;100.00;101829.31;5101098;27;20313;-72
2023/04/26 01:17:04;;;;;;;27.88;10.45;;;;;;;3.84;100.00;101819.69;5095603;27;20042;-71
2023/04/26 01:19:31;;;;;;;21.95;10.73;;;;;;;3.83;100.00;101825.88;5094271;27;20036;-72
2023/04/26 01:21:57;;;;;;;22.98;9.80;;;;;;;3.83;100.00;101828.50;5080590;27;20070;-71
2023/04/26 01:24:22;;;;;;;26.40;9.68;;;;;;;3.84;100.00;101824.97;5085315;27;20111;-71
2023/04/26 01:26:48;;;;;;;19.88;9.50;;;;;;;3.79;100.00;101829.47;5086275;28;20356;-71
2023/04/26 01:29:21;;;;;;;23.27;10.35;;;;;;;3.83;100.00;101830.28;5076585;27;20828;-72
2023/04/26 01:31:47;;;;;;;22.13;8.80;;;;;;;3.75;100.00;101825.13;5097521;27;20036;-71
2023/04/26 01:34:13;;;;;;;28.40;10.07;;;;;;;3.71;100.00;101831.34;5093308;27;20097;-72
2023/04/26 01:36:39;;;;;;;26.55;9.77;;;;;;;3.77;100.00;101833.91;5098862;27;20147;-71
2023/04/26 01:39:06;;;;;;;24.40;8.98;;;;;;;3.70;100.00;101832.25;5078290;27;20038;-72
2023/04/26 01:41:32;;;;;;;24.80;10.15;;;;;;;3.70;100.00;101834.03;5100967;27;20032;-70
2023/04/26 01:44:00;;;;;;;24.05;10.77;;;;;;;3.59;100.00;101835.09;5073077;28;20035;-70
2023/04/26 01:46:25;;;;;;;21.73;9.15;;;;;;;3.56;100.00;101827.25;5095842;27;20024;-69
2023/04/26 01:48:51;;;;;;;22.30;9.57;;;;;;;3.58;100.00;101832.50;5077028;27;20336;-70
2023/04/26 01:51:17;;;;;;;18.80;9.45;;;;;;;3.47;100.00;101823.94;5094669;27;20044;-72
2023/04/26 01:53:42;;;;;;;25.42;10.55;;;;;;;3.45;100.00;101826.56;5096521;27;20070;-72
2023/04/26 01:56:09;;;;;;;25.00;9.32;;;;;;;3.31;100.00;101826.84;5097472;27;20032;-72
2023/04/26 01:58:36;;;;;;;21.65;9.07;;;;;;;3.13;100.00;101831.56;5098698;27;20048;-72
2023/04/26 02:01:06;;;;;;;18.45;8.55;;;;;;;3.16;100.00;101832.34;5077479;27;20035;-72
2023/04/26 02:03:32;;;;;;;23.90;9.68;;;;;;;3.28;100.00;101834.78;5076443;27;20887;-71
2023/04/26 02:05:58;;;;;;;16.25;9.63;;;;;;;3.24;100.00;101832.22;5076339;27;20075;-72
2023/04/26 02:08:25;;;;;;;17.05;9.93;;;;;;;3.27;100.00;101832.19;5074945;27;20071;-72
2023/04/26 02:10:50;;;;;;;20.30;9.48;;;;;;;3.28;100.00;101826.03;5074742;27;20394;-72
2023/04/26 02:13:16;;;;;;;23.75;9.82;;;;;;;3.16;100.00;101832.34;5073510;28;20032;-72
2023/04/26 02:15:45;;;;;;;25.02;10.15;;;;;;;3.23;100.00;101835.78;5061785;27;20032;-72
2023/04/26 02:18:11;;;;;;;20.23;8.95;;;;;;;3.18;100.00;101835.84;5097192;27;20902;-72
2023/04/26 02:20:42;;;;;;;18.20;9.02;;;;;;;3.16;100.00;101832.34;5090977;27;20035;-72
2023/04/26 02:23:08;;;;;;;17.90;9.73;;;;;;;3.17;100.00;101827.97;5090754;27;20028;-72
2023/04/26 02:25:34;;;;;;;16.48;9.45;;;;;;;3.16;100.00;101831.47;5071373;27;21017;-72
2023/04/26 02:28:00;;;;;;;15.95;9.40;;;;;;;3.14;100.00;101835.91;5054733;28;20040;-71
2023/04/26 02:30:27;;;;;;;20.65;10.05;;;;;;;3.07;100.00;101833.41;5075785;27;20595;-72
2023/04/26 02:32:53;;;;;;;22.27;11.30;;;;;;;3.08;100.00;101835.13;5077115;27;20041;-72
2023/04/26 02:35:19;;;;;;;26.02;11.02;;;;;;;3.09;100.00;101834.22;5076107;28;20033;-72
2023/04/26 02:37:47;;;;;;;20.95;10.77;;;;;;;3.03;100.00;101830.84;5074273;27;20028;-72
2023/04/26 02:40:14;;;;;;;20.08;9.13;;;;;;;2.95;100.00;101828.31;5073831;27;20040;-72
2023/04/26 02:42:39;;;;;;;14.65;6.82;;;;;;;2.93;100.00;101830.09;5095766;27;20062;-72
2023/04/26 02:45:06;;;;;;;15.68;8.50;;;;;;;2.93;100.00;101832.75;5079361;27;20031;-72
2023/04/26 02:47:35;;;;;;;19.38;9.50;;;;;;;2.91;100.00;101833.63;5068856;28;20093;-72
2023/04/26 02:50:02;;;;;;;20.33;9.73;;;;;;;2.91;100.00;101836.28;5102511;27;20095;-73
2023/04/26 02:52:29;;;;;;;21.63;9.70;;;;;;;2.92;100.00;101830.13;5096317;27;20405;-72
2023/04/26 02:54:55;;;;;;;20.13;10.38;;;;;;;2.83;100.00;101826.75;5084382;27;20113;-72
2023/04/26 02:57:21;;;;;;;26.02;11.95;;;;;;;2.88;100.00;101823.19;5076072;27;20048;-72
2023/04/26 02:59:49;;;;;;;19.42;10.10;;;;;;;2.88;100.00;101826.69;5081722;27;20032;-72
2023/04/26 03:02:15;;;;;;;26.27;11.23;;;;;;;2.85;100.00;101829.34;5078209;28;20118;-72
2023/04/26 03:04:40;;;;;;;27.05;11.15;;;;;;;2.78;100.00;101830.34;5096202;27;20044;-72
2023/04/26 03:07:06;;;;;;;26.42;10.90;;;;;;;2.71;100.00;101824.31;5095653;27;20039;-72
2023/04/26 03:09:33;;;;;;;18.25;7.68;;;;;;;2.72;100.00;101828.69;5077946;27;20480;-72
2023/04/26 03:11:59;;;;;;;17.98;9.02;;;;;;;2.69;100.00;101833.13;5081648;28;20024;-72
2023/04/26 03:14:25;;;;;;;19.67;9.15;;;;;;;2.68;100.00;101832.25;5078856;27;20032;-73
2023/04/26 03:16:53;;;;;;;18.33;8.25;;;;;;;2.64;100.00;101834.94;5079107;28;20048;-72
2023/04/26 03:19:18;;;;;;;23.48;10.23;;;;;;;2.61;100.00;101838.50;5095479;27;20061;-72
2023/04/26 03:21:45;;;;;;;20.63;10.25;;;;;;;2.66;100.00;101825.25;5076125;27;20043;-72
2023/04/26 03:24:10;;;;;;;28.67;10.98;;;;;;;2.64;100.00;101832.31;5077480;27;20076;-72
2023/04/26 03:26:36;;;;;;;23.45;10.55;;;;;;;2.59;100.00;101833.25;5099305;27;20032;-72
2023/04/26 03:29:02;;;;;;;22.52;9.88;;;;;;;2.61;100.00;101825.34;5094687;27;20035;-72
2023/04/26 03:31:28;;;;;;;22.92;10.57;;;;;;;2.56;100.00;101829.78;5095294;27;20032;-72
2023/04/26 03:33:53;;;;;;;21.70;10.75;;;;;;;2.56;100.00;101827.13;5079118;28;20055;-72
2023/04/26 03:36:19;;;;;;;21.30;11.05;;;;;;;2.46;100.00;101821.16;5063448;27;20078;-72
2023/04/26 03:38:45;;;;;;;26.58;11.88;;;;;;;2.46;100.00;101823.81;5075919;27;20038;-72
2023/04/26 03:41:12;;;;;;;27.95;11.18;;;;;;;2.53;100.00;101820.16;5075794;27;20036;-72
2023/04/26 03:43:37;;;;;;;22.30;10.35;;;;;;;2.48;100.00;101824.63;5082910;27;20113;-72
2023/04/26 03:46:04;;;;;;;23.42;11.05;;;;;;;2.45;100.00;101819.41;5107337;27;20036;-72
2023/04/26 03:48:30;;;;;;;28.15;12.75;;;;;;;2.42;100.00;101819.47;5076075;27;20053;-72
2023/04/26 03:50:55;;;;;;;23.88;12.15;;;;;;;2.43;100.00;101815.94;5082883;27;20039;-72
2023/04/26 03:53:21;;;;;;;23.38;12.40;;;;;;;2.39;100.00;101821.25;5079053;27;20432;-74
2023/04/26 03:55:47;;;;;;;25.05;11.93;;;;;;;2.39;100.00;101818.63;5080756;27;20089;-72
2023/04/26 03:58:13;;;;;;;26.27;12.07;;;;;;;2.41;100.00;101817.72;5077043;27;20024;-72
2023/04/26 04:00:41;;;;;;;23.83;12.48;;;;;;;2.37;100.00;101815.16;5094720;27;20493;-72
2023/04/26 04:03:07;;;;;;;32.90;12.70;;;;;;;2.34;100.00;101823.94;5076002;27;20094;-72
2023/04/26 04:05:32;;;;;;;29.20;12.00;;;;;;;2.29;100.00;101821.38;5086223;27;20144;-72
2023/04/26 04:07:58;;;;;;;24.05;11.23;;;;;;;2.29;100.00;101817.88;5076527;27;20140;-72
2023/04/26 04:10:24;;;;;;;24.92;11.32;;;;;;;2.32;100.00;101816.09;5094853;27;20472;-72
2023/04/26 04:12:51;;;;;;;23.63;12.65;;;;;;;2.31;100.00;101816.97;5062084;27;20032;-72
2023/04/26 04:15:18;;;;;;;29.02;13.07;;;;;;;2.34;100.00;101810.78;5099494;27;20032;-72
2023/04/26 04:17:46;;;;;;;28.45;13.38;;;;;;;2.31;100.00;101810.84;5065502;27;20039;-72
2023/04/26 04:20:12;;;;;;;30.38;13.32;;;;;;;2.35;100.00;101817.78;5093130;27;20047;-72
2023/04/26 04:22:38;;;;;;;24.38;12.70;;;;;;;2.41;100.00;101823.00;5074421;27;20036;-72
2023/04/26 04:25:11;;;;;;;26.38;14.05;;;;;;;2.44;100.00;101830.81;5076777;27;20028;-72
2023/04/26 04:27:37;;;;;;;26.55;13.35;;;;;;;2.50;100.00;101830.72;5078773;27;20061;-72
2023/04/26 04:30:06;;;;;;;32.83;15.00;;;;;;;2.57;100.00;101829.78;5098447;27;20067;-73
2023/04/26 04:32:33;;;;;;;33.22;14.18;;;;;;;2.97;100.00;101823.91;5092624;27;20143;-72
2023/04/26 04:34:59;;;;;;;32.13;13.60;;;;;;;3.39;100.00;101816.16;5073410;27;20162;-72
2023/04/26 04:37:25;;;;;;;23.70;12.75;;;;;;;3.89;100.00;101816.97;5073508;27;20051;-72
2023/04/26 04:39:52;;;;;;;28.80;14.48;;;;;;;4.49;100.00;101816.56;5056173;28;20028;-72
2023/04/26 04:42:18;;;;;;;24.75;12.77;;;;;;;5.00;100.00;101808.31;5077560;27;20151;-73
2023/04/26 04:44:48;;;;;;;27.67;13.57;;;;;;;5.43;100.00;101808.09;5074679;28;20036;-70
2023/04/26 04:47:16;;;;;;;32.80;15.18;;;;;;;5.88;100.00;101809.53;5062330;27;20865;-72
2023/04/26 04:49:42;;;;;;;25.85;12.60;;;;;;;6.37;100.00;101808.94;5078895;27;20117;-70
2023/04/26 04:52:07;;;;;;;40.28;15.43;;;;;;;6.88;100.00;101802.97;5098361;27;20936;-70
2023/04/26 04:54:33;;;;;;;30.20;14.73;;;;;;;7.45;97.13;101793.06;5067718;27;20028;-72
2023/04/26 04:57:00;;;;;;;32.90;15.30;;;;;;;7.95;93.53;101791.25;5073609;28;20877;-72
2023/04/26 04:59:26;;;;;;;30.50;14.82;;;;;;;8.35;89.56;101799.50;5073500;28;20032;-70
2023/04/26 05:01:52;;;;;;;27.08;14.73;;;;;;;8.46;87.06;101806.16;5095148;27;20035;-70
2023/04/26 05:04:17;;;;;;;28.13;14.88;;;;;;;7.84;87.66;101806.72;5100603;27;20032;-70
2023/04/26 05:06:43;;;;;;;26.88;14.68;;;;;;;8.02;88.74;101803.34;5092393;27;20559;-70
2023/04/26 05:09:10;;;;;;;28.25;13.93;;;;;;;8.68;84.82;101800.84;5078037;27;20084;-70
2023/04/26 05:11:36;;;;;;;31.00;14.35;;;;;;;8.67;84.83;101800.91;5074315;28;20039;-70
2023/04/26 05:14:02;;;;;;;26.42;14.60;;;;;;;9.34;82.78;101800.81;5076138;27;20030;-72
2023/04/26 05:16:29;;;;;;;26.05;14.68;;;;;;;9.53;79.97;101804.38;5071817;28;20088;-72
2023/04/26 05:18:55;;;;;;;28.80;14.40;;;;;;;9.59;78.50;101803.28;5081183;27;20032;-71
2023/04/26 05:21:21;;;;;;;26.17;13.98;;;;;;;9.96;78.71;101813.13;5093376;27;20045;-72
2023/04/26 05:23:47;;;;;;;25.92;15.02;;;;;;;10.31;77.93;101819.53;5093315;27;20032;-70
2023/04/26 05:26:15;;;;;;;27.42;14.73;;;;;;;10.53;75.74;101816.72;5079521;27;20035;-70
2023/04/26 05:28:59;;;;;;;34.17;17.42;;;;;;;10.03;75.43;101817.25;5093693;27;20032;-70
2023/04/26 05:31:53;;;;;;;33.97;17.83;;;;;;;9.38;79.70;101818.34;5084902;27;20040;-70
2023/04/26 05:34:42;;;;;;;34.03;17.75;;;;;;;8.63;83.46;101828.53;5089757;27;20043;-71
2023/04/26 05:37:10;;;;;;;35.20;17.02;;;;;;;9.19;84.94;101822.75;5073739;28;20047;-71
2023/04/26 05:39:36;;;;;;;37.30;18.15;;;;;;;9.55;84.09;101821.16;5075115;27;20031;-70
2023/04/26 05:42:02;;;;;;;40.55;17.90;;;;;;;9.64;83.24;101829.66;5080499;27;20040;-70
2023/04/26 05:44:29;;;;;;;34.40;17.92;;;;;;;10.09;82.60;101832.97;5091370;27;20109;-70
2023/04/26 05:46:55;;;;;;;28.73;16.92;;;;;;;10.18;81.89;101834.34;5083192;27;20531;-71
2023/04/26 05:49:20;;;;;;;33.45;17.05;;;;;;;10.60;79.29;101828.84;5055608;27;20899;-70
2023/04/26 05:51:46;;;;;;;35.22;16.63;;;;;;;10.30;78.92;101838.28;5078263;28;20032;-70
2023/04/26 05:54:12;;;;;;;29.20;16.10;;;;;;;10.08;79.20;101841.03;5094863;27;20083;-70
2023/04/26 05:56:38;;;;;;;26.88;15.45;;;;;;;9.97;79.35;101836.19;5081753;27;20036;-70
2023/04/26 05:59:04;;;;;;;31.05;16.02;;;;;;;10.11;80.72;101836.41;5072343;27;20036;-70
2023/04/26 06:01:31;;;;;;;31.92;15.65;;;;;;;9.87;81.13;101837.53;5061624;28;20155;-71
2023/04/26 06:03:57;;;;;;;26.88;15.82;;;;;;;10.24;81.91;101841.22;5079539;27;20040;-70
2023/04/26 06:06:23;;;;;;;28.23;13.95;;;;;;;10.31;80.48;101840.88;5079184;28;20145;-71
2023/04/26 06:08:48;;;;;;;21.15;12.85;;;;;;;9.76;80.63;101843.31;5054903;27;20042;-71
2023/04/26 06:11:14;;;;;;;24.63;13.10;;;;;;;9.91;79.27;101835.59;5071123;27;20036;-72
2023/04/26 06:13:41;;;;;;;21.58;12.07;;;;;;;10.28;80.00;101841.00;5088974;27;20039;-71
2023/04/26 06:16:09;;;;;;;28.17;12.02;;;;;;;10.57;81.15;101847.66;5071282;28;20037;-71
2023/04/26 06:18:34;;;;;;;23.13;12.32;;;;;;;10.65;79.85;101849.09;5090689;27;20039;-71
2023/04/26 06:21:00;;;;;;;23.85;13.32;;;;;;;10.80;76.59;101838.56;5090061;27;20036;-71
2023/04/26 06:23:25;;;;;;;23.50;11.90;;;;;;;10.73;75.88;101846.91;5076591;28;20044;-71
2023/04/26 06:25:51;;;;;;;22.65;10.88;;;;;;;10.49;74.99;101856.94;5080544;28;20090;-71
2023/04/26 06:28:17;;;;;;;23.33;11.13;;;;;;;10.12;74.17;101853.28;5059001;27;20032;-71
2023/04/26 06:30:43;;;;;;;23.77;11.80;;;;;;;10.68;76.31;101852.47;5095628;27;20063;-71
2023/04/26 06:33:09;;;;;;;19.10;8.98;;;;;;;10.71;75.69;101844.34;5101964;27;20086;-71
2023/04/26 06:35:39;;;;;;;20.73;10.32;;;;;;;11.23;74.77;101843.59;5076887;27;20119;-71
2023/04/26 06:38:07;;;;;;;20.92;10.07;;;;;;;11.05;74.47;101840.91;5079104;27;20131;-70
2023/04/26 06:40:35;;;;;;;30.55;10.20;;;;;;;11.31;72.18;101839.59;5075589;28;20097;-70
2023/04/26 06:43:02;;;;;;;21.08;9.85;;;;;;;11.65;72.61;101836.06;5058980;27;20144;-72
2023/04/26 06:45:31;;;;;;;16.27;8.80;;;;;;;11.74;71.91;101834.69;5099491;27;20050;-72
2023/04/26 06:47:59;;;;;;;17.90;8.45;;;;;;;11.66;69.12;101836.94;5085138;27;20028;-70
2023/04/26 06:50:25;;;;;;;22.30;7.88;;;;;;;11.81;71.41;101830.78;5075731;28;20062;-73
2023/04/26 06:52:51;;;;;;;19.63;8.32;;;;;;;11.61;69.22;101847.00;5075290;28;20060;-72
2023/04/26 06:55:17;;;;;;;18.38;8.45;;;;;;;11.64;69.39;101833.47;5059054;27;20031;-72
2023/04/26 06:57:43;;;;;;;26.05;8.75;;;;;;;11.26;70.32;101843.44;5101597;27;20074;-72
2023/04/26 07:00:09;;;;;;;14.52;6.63;;;;;;;11.26;68.80;101841.63;5097826;27;20442;-72
2023/04/26 07:02:35;;;;;;;19.67;7.15;;;;;;;10.74;70.09;101853.97;5096379;27;20043;-72
2023/04/26 07:05:00;;;;;;;20.88;7.82;;;;;;;10.79;71.58;101847.50;5096379;27;20036;-72
2023/04/26 07:07:26;;;;;;;17.23;8.07;;;;;;;11.08;71.93;101845.22;5095640;27;20109;-71
2023/04/26 07:09:51;;;;;;;15.13;7.22;;;;;;;11.11;71.25;101855.75;5077076;27;20038;-70
2023/04/26 07:12:17;;;;;;;18.83;7.82;;;;;;;11.32;70.46;101853.81;5063191;27;20039;-70
2023/04/26 07:14:43;;;;;;;13.30;6.65;;;;;;;10.97;69.36;101860.88;5096124;27;20644;-72
2023/04/26 07:17:09;;;;;;;23.88;8.07;;;;;;;10.95;69.42;101855.63;5095938;27;20028;-72
2023/04/26 07:19:35;;;;;;;18.42;7.30;;;;;;;10.79;69.96;101865.28;5093702;27;20032;-70
2023/04/26 07:22:01;;;;;;;15.15;6.50;;;;;;;11.00;70.20;101858.94;5099353;27;20079;-72
2023/04/26 07:24:26;;;;;;;19.50;6.32;;;;;;;11.31;68.41;101862.75;5075401;27;20123;-72
2023/04/26 07:26:52;;;;;;;11.73;5.90;;;;;;;11.18;66.83;101861.63;5094914;27;20044;-72
2023/04/26 07:29:18;;;;;;;18.02;5.97;;;;;;;11.46;68.13;101855.78;5094559;27;20922;-72
2023/04/26 07:31:44;;;;;;;22.02;6.15;;;;;;;11.40;66.58;101860.50;5101229;27;20032;-72
2023/04/26 07:34:10;;;;;;;10.82;5.90;;;;;;;11.60;64.87;101854.16;5082601;27;20043;-73
2023/04/26 07:36:36;;;;;;;15.60;7.13;;;;;;;11.66;66.14;101845.81;5098982;27;20081;-70
2023/04/26 07:39:03;;;;;;;13.02;5.93;;;;;;;11.90;65.20;101845.50;5084365;27;20032;-70
2023/04/26 07:41:30;;;;;;;15.13;5.65;;;;;;;12.07;64.40;101841.94;5077455;28;20268;-72
2023/04/26 07:43:56;;;;;;;10.55;5.65;;;;;;;11.96;63.89;101847.84;5100470;27;20745;-72
2023/04/26 07:46:22;;;;;;;11.93;4.80;;;;;;;12.10;63.71;101847.13;5095336;27;20047;-72
2023/04/26 07:48:47;;;;;;;18.88;5.70;;;;;;;12.22;62.96;101842.91;5095993;27;20067;-72
2023/04/26 07:51:15;;;;;;;12.13;5.15;;;;;;;12.31;62.37;101845.97;5095187;27;20060;-72
2023/04/26 07:53:42;;;;;;;6.35;2.97;;;;;;;11.87;59.45;101840.31;5076803;27;20028;-72
2023/04/26 07:56:08;;;;;;;9.25;3.67;;;;;;;11.85;59.54;101851.09;5095339;27;20040;-72
2023/04/26 07:58:37;;;;;;;14.30;3.63;;;;;;;12.00;60.39;101846.75;5102149;27;20047;-72
2023/04/26 08:01:04;;;;;;;15.00;3.40;;;;;;;12.07;59.28;101850.81;5060396;27;20051;-72
2023/04/26 08:03:30;;;;;;;12.10;3.20;;;;;;;12.37;60.32;101853.63;5077273;27;20028;-72
2023/04/26 08:05:57;;;;;;;11.43;3.47;;;;;;;12.56;59.69;101850.81;5080532;28;20447;-72
2023/04/26 08:08:25;;;;;;;8.43;3.33;;;;;;;12.58;59.27;101848.91;5094407;27;20115;-72
2023/04/26 08:10:51;;;;;;;11.23;3.60;;;;;;;12.88;59.35;101848.13;5079576;27;20027;-70
2023/04/26 08:13:17;;;;;;;12.35;3.60;;;;;;;12.53;55.88;101847.44;5101113;27;20038;-72
2023/04/26 08:15:43;;;;;;;7.38;3.08;;;;;;;12.48;58.05;101845.03;5096206;27;20539;-72
2023/04/26 08:18:09;;;;;;;12.70;4.25;;;;;;;12.24;59.14;101849.88;5096231;27;21515;-72
2023/04/26 08:20:35;;;;;;;8.55;3.38;;;;;;;12.12;59.50;101855.91;5081759;27;20051;-72
2023/04/26 08:23:00;;;;;;;10.55;4.00;;;;;;;12.24;58.98;101857.91;5100079;27;20040;-72
2023/04/26 08:25:26;;;;;;;9.50;3.55;;;;;;;12.95;58.33;101852.19;5095417;27;20024;-72
2023/04/26 08:27:52;;;;;;;8.00;3.08;;;;;;;12.67;56.25;101853.75;5104062;27;20085;-72
2023/04/26 08:30:18;;;;;;;7.78;3.72;;;;;;;12.72;58.19;101866.88;5095546;27;20039;-71
2023/04/26 08:32:45;;;;;;;10.55;3.78;;;;;;;12.86;58.11;101856.25;5094742;27;20277;-72
2023/04/26 08:35:10;;;;;;;7.60;3.65;;;;;;;12.79;56.76;101867.38;5082638;27;20118;-72
2023/04/26 08:37:36;;;;;;;8.25;3.65;;;;;;;11.86;57.39;101870.66;5075915;28;20162;-72
2023/04/26 08:40:12;;;;;;;5.10;3.00;;;;;;;11.57;56.95;101873.00;5095542;27;21341;-72
2023/04/26 08:42:43;;;;;;;14.13;4.55;;;;;;;11.92;58.16;101867.66;5098878;27;20059;-72
2023/04/26 08:45:11;;;;;;;11.23;3.33;;;;;;;12.52;56.47;101869.81;5084633;28;20039;-72
2023/04/26 08:47:40;;;;;;;17.30;4.57;;;;;;;12.41;57.57;101870.38;5099123;27;20085;-72
2023/04/26 08:50:08;;;;;;;11.32;3.15;;;;;;;12.22;56.68;101864.31;5094695;27;20044;-72
2023/04/26 08:52:37;;;;;;;10.98;3.55;;;;;;;12.57;57.43;101865.06;5095286;27;20032;-72
2023/04/26 08:55:05;;;;;;;16.25;4.20;;;;;;;12.54;56.22;101868.75;5101779;27;20584;-71
2023/04/26 08:57:32;;;;;;;14.07;4.75;;;;;;;12.75;56.37;101863.16;5060984;28;20039;-71
2023/04/26 08:59:58;;;;;;;13.45;3.75;;;;;;;12.64;56.30;101858.41;5087343;27;20503;-72
2023/04/26 09:02:23;;;;;;;9.45;3.33;;;;;;;12.61;55.21;101867.47;5072777;27;20055;-71
2023/04/26 09:04:50;;;;;;;8.88;2.80;;;;;;;12.94;55.13;101859.34;5092398;27;20040;-71
2023/04/26 09:07:32;;;;;;;9.18;3.70;;;;;;;13.03;54.90;101860.66;5098388;27;20066;-71
2023/04/26 09:09:59;;;;;;;9.40;3.30;;;;;;;13.10;56.77;101859.38;5092494;27;20040;-71
2023/04/26 09:12:25;;;;;;;8.32;3.78;;;;;;;12.74;54.53;101861.44;5097299;27;20105;-72
2023/04/26 09:14:51;;;;;;;10.95;3.83;;;;;;;12.29;54.67;101858.53;5078787;27;20060;-71
2023/04/26 09:17:37;;;;;;;8.60;3.42;;;;;;;12.47;57.13;101856.66;5077154;27;20075;-71
2023/04/26 09:20:24;;;;;;;12.40;3.58;;;;;;;12.53;55.72;101845.63;5059660;28;20039;-71
2023/04/26 09:23:09;;;;;;;7.65;3.30;;;;;;;12.64;55.65;101851.25;5092104;27;20063;-71
2023/04/26 09:25:37;;;;;;;7.30;3.30;;;;;;;12.87;55.81;101849.97;5098699;27;20041;-71
2023/04/26 09:28:17;;;;;;;13.00;3.47;;;;;;;12.40;55.42;101861.50;5095809;27;20032;-71
2023/04/26 09:30:43;;;;;;;10.63;2.83;;;;;;;12.43;52.95;101853.28;5101168;27;20062;-71
2023/04/26 09:33:09;;;;;;;7.88;2.78;;;;;;;12.92;53.18;101849.69;5058527;27;20028;-72
2023/04/26 09:35:40;;;;;;;6.28;3.25;;;;;;;12.76;52.91;101846.16;5075017;27;20795;-72
2023/04/26 09:38:09;;;;;;;11.48;4.25;;;;;;;12.41;52.77;101849.84;5072156;28;20067;-71
2023/04/26 09:40:37;;;;;;;4.65;2.58;;;;;;;12.15;52.12;101850.41;5098934;27;20029;-72
2023/04/26 09:43:08;;;;;;;10.00;5.00;;;;;;;12.07;53.60;101856.16;5098127;27;20904;-72
2023/04/26 09:45:57;;;;;;;10.10;2.97;;;;;;;11.78;53.64;101846.97;5079688;27;20113;-72
2023/04/26 09:48:24;;;;;;;6.82;2.95;;;;;;;12.01;54.44;101848.47;5100405;27;20062;-72
2023/04/26 09:50:53;;;;;;;9.60;3.28;;;;;;;11.87;55.63;101849.19;5078081;28;20059;-72
2023/04/26 09:53:37;;;;;;;10.98;3.20;;;;;;;11.74;56.37;101849.88;5071353;27;20040;-71
2023/04/26 09:56:10;;;;;;;6.88;3.35;;;;;;;11.59;56.75;101848.84;5079317;27;20035;-72
2023/04/26 09:58:38;;;;;;;6.85;3.42;;;;;;;11.48;56.79;101849.41;5090361;27;20051;-72
2023/04/26 10:01:06;;;;;;;9.77;3.53;;;;;;;11.43;57.40;101847.91;5097892;27;20036;-71
2023/04/26 10:03:36;;;;;;;15.75;3.47;;;;;;;11.01;58.99;101866.00;5093509;27;20039;-72
2023/04/26 10:06:03;;;;;;;9.48;4.20;;;;;;;11.39;59.17;101864.09;5053903;28;20058;-72
2023/04/26 10:08:31;;;;;;;6.88;3.95;;;;;;;11.10;59.87;101856.69;5090081;27;20032;-72
2023/04/26 10:10:57;;;;;;;12.88;4.32;;;;;;;11.51;58.32;101857.28;5090416;27;20116;-72
2023/04/26 10:13:23;;;;;;;9.88;3.90;;;;;;;11.60;60.49;101855.97;5095026;27;20035;-72
2023/04/26 10:15:49;;;;;;;8.13;3.95;;;;;;;11.93;59.62;101848.00;5095599;27;20678;-72
2023/04/26 10:18:16;;;;;;;10.98;4.68;;;;;;;12.23;58.83;101848.16;5094614;27;20125;-72
2023/04/26 10:20:47;;;;;;;10.27;3.97;;;;;;;12.28;56.57;101847.94;5088856;27;20036;-71
2023/04/26 10:23:19;;;;;;;9.73;3.67;;;;;;;12.67;54.33;101850.22;5088263;27;20102;-71
2023/04/26 10:25:46;;;;;;;10.48;4.05;;;;;;;12.86;53.85;101839.34;5084467;27;20066;-71
2023/04/26 10:28:12;;;;;;;7.68;3.78;;;;;;;13.08;52.39;101837.16;5089284;27;20135;-72
2023/04/26 10:30:59;;;;;;;11.45;3.80;;;;;;;13.29;52.76;101840.41;5091103;27;20038;-71
2023/04/26 10:33:26;;;;;;;8.32;3.75;;;;;;;12.99;53.51;101842.16;5101090;27;20299;-72
2023/04/26 10:36:13;;;;;;;9.18;3.88;;;;;;;12.92;53.43;101837.16;5097646;27;20140;-71
2023/04/26 10:38:41;;;;;;;12.75;3.67;;;;;;;12.96;53.34;101841.41;5081409;28;20041;-72
2023/04/26 10:41:30;;;;;;;9.40;3.88;;;;;;;12.85;53.66;101845.63;5087766;27;20051;-69
2023/04/26 10:43:58;;;;;;;4.85;3.38;;;;;;;12.67;53.20;101845.72;5088478;27;20100;-70
2023/04/26 10:46:39;;;;;;;8.40;3.30;;;;;;;12.72;51.67;101831.22;5089510;27;20037;-70
2023/04/26 10:49:14;;;;;;;11.15;3.85;;;;;;;12.76;51.77;101836.31;5081521;27;20032;-71
2023/04/26 10:51:39;;;;;;;8.68;3.80;;;;;;;12.26;52.60;101837.31;5077475;27;20036;-70
2023/04/26 10:54:06;;;;;;;10.05;3.63;;;;;;;12.12;51.95;101829.19;5096995;27;20720;-71
2023/04/26 10:56:32;;;;;;;7.63;3.60;;;;;;;12.21;52.00;101833.16;5077508;27;20136;-72
2023/04/26 10:59:11;;;;;;;13.90;4.07;;;;;;;12.43;52.59;101823.88;5076961;27;20123;-70
2023/04/26 11:01:41;;;;;;;7.45;3.63;;;;;;;12.49;53.96;101836.03;5090207;27;20037;-72
2023/04/26 11:04:11;;;;;;;14.55;4.53;;;;;;;12.28;55.22;101830.06;5071883;27;20040;-70
2023/04/26 11:06:56;;;;;;;7.15;4.22;;;;;;;12.47;55.92;101840.63;5088929;27;20037;-70
2023/04/26 11:09:39;;;;;;;8.50;3.70;;;;;;;12.50;55.77;101847.59;5083727;27;20078;-72
2023/04/26 11:12:14;;;;;;;13.02;3.22;;;;;;;12.33;54.48;101843.19;5091022;27;20193;-72
2023/04/26 11:14:47;;;;;;;12.43;3.40;;;;;;;12.85;54.70;101841.16;5080166;27;20044;-72
2023/04/26 11:17:13;;;;;;;8.18;2.80;;;;;;;12.46;53.81;101843.41;5079323;27;20040;-72
2023/04/26 11:19:46;;;;;;;8.57;3.83;;;;;;;12.35;54.16;101835.94;5064041;28;20032;-72